< Typhoon 199112 1991 Season Typhoon 199114 >
Typhoon 199113 (NO-NAME)
General InformationTrack Information on Google MapsDetailed Wind InformationList of All Images || NewsDisaster Info.ResourceGoogle EarthGE AnimationAtom FeedGeoJSON
Detalied Best Track (Time Zone = UTC)
Year Month Day Hour Lat. Long. Pressure (hPa) Wind (kt) Class Image Chart
1991 8 26 00 27.0 138.0 1000 0 2 Image Chart
1991 8 26 06 27.0 137.0 998 0 2 Image Chart
1991 8 26 12 27.0 136.0 998 0 2 Image Chart
1991 8 26 18 27.2 135.5 998 0 2 Image Chart
1991 8 27 00 27.5 134.6 998 0 2 Image Chart
1991 8 27 06 28.0 133.5 1000 0 2 Image Chart
1991 8 27 12 28.3 132.6 1000 0 2 Image Chart
1991 8 27 18 28.8 131.8 998 0 2 Image Chart
1991 8 27 21 29.3 131.3 996 35 3 Image Chart
1991 8 28 00 29.6 130.7 996 35 3 Image Chart
1991 8 28 03 30.1 130.1 996 35 3 Image Chart
1991 8 28 06 30.4 129.7 994 35 3 Image Chart
1991 8 28 09 30.8 129.3 992 35 3 Image Chart
1991 8 28 12 31.2 128.8 992 35 3 Image Chart
1991 8 28 15 31.8 128.6 994 35 3 Image Chart
1991 8 28 18 32.3 128.5 994 35 3 Image Chart
1991 8 28 21 32.7 128.6 994 35 3 Image Chart
1991 8 29 00 33.1 128.7 996 35 3 Image Chart
1991 8 29 03 33.7 128.9 998 0 2 Image Chart
1991 8 29 06 34.1 129.0 998 0 2 Image Chart
1991 8 29 12 35.5 130.3 1000 0 2 Image Chart
1991 8 29 18 37.3 132.0 1002 0 2 Image Chart
1991 8 30 00 38.8 134.0 1002 0 2 Image Chart
1991 8 30 06 40.0 136.0 1002 0 6 Image Chart
1991 8 30 12 40.5 137.0 1002 0 6 Image Chart
1991 8 30 18 41.0 138.0 1002 0 6 Image Chart
1991 8 31 00 41.0 139.0 1002 0 6 Image Chart
Japan Meteorological Agency Best Track Data | Correction Date : 1992-01-04
< Typhoon 199112 1991 Season Typhoon 199114 >

Help